sensor_id;sensor_type;location;lat;lon;timestamp;P1;durP1;ratioP1;P2;durP2;ratioP2
69588;SDS011;56792;50.644;17.984;2023-04-02T00:00:18;26.10;;;13.70;;
69588;SDS011;56792;50.644;17.984;2023-04-02T00:02:59;27.10;;;13.40;;
69588;SDS011;56792;50.644;17.984;2023-04-02T00:05:41;25.60;;;13.70;;
69588;SDS011;56792;50.644;17.984;2023-04-02T00:08:24;25.80;;;13.70;;
69588;SDS011;56792;50.644;17.984;2023-04-02T00:10:57;24.00;;;12.60;;
69588;SDS011;56792;50.644;17.984;2023-04-02T00:13:35;29.90;;;14.10;;
69588;SDS011;56792;50.644;17.984;2023-04-02T00:16:07;27.70;;;13.50;;
69588;SDS011;56792;50.644;17.984;2023-04-02T00:18:43;29.90;;;14.50;;
69588;SDS011;56792;50.644;17.984;2023-04-02T00:21:22;25.60;;;12.70;;
69588;SDS011;56792;50.644;17.984;2023-04-02T00:23:54;31.90;;;14.50;;
69588;SDS011;56792;50.644;17.984;2023-04-02T00:26:30;28.40;;;14.50;;
69588;SDS011;56792;50.644;17.984;2023-04-02T00:29:03;27.40;;;13.90;;
69588;SDS011;56792;50.644;17.984;2023-04-02T00:31:35;27.90;;;13.40;;
69588;SDS011;56792;50.644;17.984;2023-04-02T00:34:08;30.60;;;13.40;;
69588;SDS011;56792;50.644;17.984;2023-04-02T00:36:43;28.60;;;14.50;;
69588;SDS011;56792;50.644;17.984;2023-04-02T00:39:20;27.30;;;13.40;;
69588;SDS011;56792;50.644;17.984;2023-04-02T00:41:52;29.90;;;14.10;;
69588;SDS011;56792;50.644;17.984;2023-04-02T00:44:31;30.30;;;14.70;;
69588;SDS011;56792;50.644;17.984;2023-04-02T00:47:10;26.70;;;13.10;;
69588;SDS011;56792;50.644;17.984;2023-04-02T00:49:42;25.20;;;13.60;;
69588;SDS011;56792;50.644;17.984;2023-04-02T00:52:13;28.90;;;14.20;;
69588;SDS011;56792;50.644;17.984;2023-04-02T00:54:46;26.10;;;13.10;;
69588;SDS011;56792;50.644;17.984;2023-04-02T00:57:18;26.70;;;13.30;;
69588;SDS011;56792;50.644;17.984;2023-04-02T00:59:55;27.60;;;13.60;;
69588;SDS011;56792;50.644;17.984;2023-04-02T01:02:28;29.30;;;13.90;;
69588;SDS011;56792;50.644;17.984;2023-04-02T01:04:59;28.80;;;13.50;;
69588;SDS011;56792;50.644;17.984;2023-04-02T01:07:51;28.20;;;13.60;;
69588;SDS011;56792;50.644;17.984;2023-04-02T01:13:32;26.60;;;12.10;;
69588;SDS011;56792;50.644;17.984;2023-04-02T01:16:09;24.80;;;12.50;;
69588;SDS011;56792;50.644;17.984;2023-04-02T01:18:52;24.70;;;13.00;;
69588;SDS011;56792;50.644;17.984;2023-04-02T01:21:49;26.00;;;13.40;;
69588;SDS011;56792;50.644;17.984;2023-04-02T01:24:27;23.10;;;12.40;;
69588;SDS011;56792;50.644;17.984;2023-04-02T01:26:59;22.10;;;11.80;;
69588;SDS011;56792;50.644;17.984;2023-04-02T01:29:32;19.60;;;10.90;;
69588;SDS011;56792;50.644;17.984;2023-04-02T01:32:05;19.60;;;10.50;;
69588;SDS011;56792;50.644;17.984;2023-04-02T01:34:37;19.70;;;11.00;;
69588;SDS011;56792;50.644;17.984;2023-04-02T01:37:14;18.10;;;10.20;;
69588;SDS011;56792;50.644;17.984;2023-04-02T01:39:59;20.60;;;11.20;;
69588;SDS011;56792;50.644;17.984;2023-04-02T01:42:41;20.00;;;10.80;;
69588;SDS011;56792;50.644;17.984;2023-04-02T01:45:17;19.80;;;11.00;;
69588;SDS011;56792;50.644;17.984;2023-04-02T01:47:49;17.40;;;9.70;;
69588;SDS011;56792;50.644;17.984;2023-04-02T01:50:25;19.60;;;11.20;;
69588;SDS011;56792;50.644;17.984;2023-04-02T01:52:59;20.70;;;11.30;;
69588;SDS011;56792;50.644;17.984;2023-04-02T01:55:33;18.50;;;10.80;;
69588;SDS011;56792;50.644;17.984;2023-04-02T01:58:08;20.20;;;11.50;;
69588;SDS011;56792;50.644;17.984;2023-04-02T02:00:42;19.40;;;11.50;;
69588;SDS011;56792;50.644;17.984;2023-04-02T02:03:15;19.50;;;11.00;;
69588;SDS011;56792;50.644;17.984;2023-04-02T02:05:43;18.30;;;10.50;;
69588;SDS011;56792;50.644;17.984;2023-04-02T02:08:30;22.40;;;12.50;;
69588;SDS011;56792;50.644;17.984;2023-04-02T02:11:03;17.10;;;9.60;;
69588;SDS011;56792;50.644;17.984;2023-04-02T02:13:32;19.10;;;10.50;;
69588;SDS011;56792;50.644;17.984;2023-04-02T02:16:02;16.20;;;9.30;;
69588;SDS011;56792;50.644;17.984;2023-04-02T02:18:33;17.20;;;10.40;;
69588;SDS011;56792;50.644;17.984;2023-04-02T02:21:04;19.70;;;10.30;;
69588;SDS011;56792;50.644;17.984;2023-04-02T02:23:36;19.00;;;11.00;;
69588;SDS011;56792;50.644;17.984;2023-04-02T02:26:05;18.50;;;10.90;;
69588;SDS011;56792;50.644;17.984;2023-04-02T02:28:37;21.00;;;11.50;;
69588;SDS011;56792;50.644;17.984;2023-04-02T02:31:15;20.40;;;10.50;;
69588;SDS011;56792;50.644;17.984;2023-04-02T02:33:51;17.50;;;10.00;;
69588;SDS011;56792;50.644;17.984;2023-04-02T02:36:25;19.30;;;10.60;;
69588;SDS011;56792;50.644;17.984;2023-04-02T02:39:03;14.10;;;9.20;;
69588;SDS011;56792;50.644;17.984;2023-04-02T02:41:45;17.20;;;9.10;;
69588;SDS011;56792;50.644;17.984;2023-04-02T02:44:19;17.30;;;9.70;;
69588;SDS011;56792;50.644;17.984;2023-04-02T02:46:53;16.10;;;9.00;;
69588;SDS011;56792;50.644;17.984;2023-04-02T02:49:28;17.80;;;9.70;;
69588;SDS011;56792;50.644;17.984;2023-04-02T02:52:02;19.00;;;9.60;;
69588;SDS011;56792;50.644;17.984;2023-04-02T02:54:47;17.40;;;8.80;;
69588;SDS011;56792;50.644;17.984;2023-04-02T02:57:21;17.20;;;9.50;;
69588;SDS011;56792;50.644;17.984;2023-04-02T02:59:52;18.30;;;8.80;;
69588;SDS011;56792;50.644;17.984;2023-04-02T03:02:23;16.50;;;9.30;;
69588;SDS011;56792;50.644;17.984;2023-04-02T03:04:54;14.30;;;8.80;;
69588;SDS011;56792;50.644;17.984;2023-04-02T03:07:25;14.60;;;7.90;;
69588;SDS011;56792;50.644;17.984;2023-04-02T03:10:02;14.50;;;7.20;;
69588;SDS011;56792;50.644;17.984;2023-04-02T03:12:42;14.00;;;7.30;;
69588;SDS011;56792;50.644;17.984;2023-04-02T03:15:20;12.60;;;6.70;;
69588;SDS011;56792;50.644;17.984;2023-04-02T03:17:57;11.20;;;7.10;;
69588;SDS011;56792;50.644;17.984;2023-04-02T03:20:33;11.80;;;6.80;;
69588;SDS011;56792;50.644;17.984;2023-04-02T03:23:11;10.80;;;6.20;;
69588;SDS011;56792;50.644;17.984;2023-04-02T03:25:47;12.70;;;6.20;;
69588;SDS011;56792;50.644;17.984;2023-04-02T03:28:26;13.10;;;7.00;;
69588;SDS011;56792;50.644;17.984;2023-04-02T03:31:00;12.40;;;5.90;;
69588;SDS011;56792;50.644;17.984;2023-04-02T03:33:34;11.40;;;6.20;;
69588;SDS011;56792;50.644;17.984;2023-04-02T03:36:16;10.40;;;5.20;;
69588;SDS011;56792;50.644;17.984;2023-04-02T03:38:52;11.40;;;6.10;;
69588;SDS011;56792;50.644;17.984;2023-04-02T03:41:31;10.90;;;6.00;;
69588;SDS011;56792;50.644;17.984;2023-04-02T03:44:15;11.20;;;5.70;;
69588;SDS011;56792;50.644;17.984;2023-04-02T03:46:53;10.50;;;5.70;;
69588;SDS011;56792;50.644;17.984;2023-04-02T03:49:30;12.90;;;6.00;;
69588;SDS011;56792;50.644;17.984;2023-04-02T03:52:07;12.10;;;6.00;;
69588;SDS011;56792;50.644;17.984;2023-04-02T03:54:37;9.30;;;5.60;;
69588;SDS011;56792;50.644;17.984;2023-04-02T03:57:11;10.60;;;6.20;;
69588;SDS011;56792;50.644;17.984;2023-04-02T03:59:59;10.80;;;5.50;;
69588;SDS011;56792;50.644;17.984;2023-04-02T04:02:44;12.00;;;6.10;;
69588;SDS011;56792;50.644;17.984;2023-04-02T04:05:23;10.00;;;5.50;;
69588;SDS011;56792;50.644;17.984;2023-04-02T04:07:59;9.10;;;5.80;;
69588;SDS011;56792;50.644;17.984;2023-04-02T04:10:30;8.60;;;5.10;;
69588;SDS011;56792;50.644;17.984;2023-04-02T04:13:04;8.30;;;4.70;;
69588;SDS011;56792;50.644;17.984;2023-04-02T04:15:37;7.90;;;5.00;;
69588;SDS011;56792;50.644;17.984;2023-04-02T04:18:15;8.70;;;5.30;;
69588;SDS011;56792;50.644;17.984;2023-04-02T04:20:52;10.30;;;5.70;;
69588;SDS011;56792;50.644;17.984;2023-04-02T04:23:29;11.20;;;6.20;;
69588;SDS011;56792;50.644;17.984;2023-04-02T04:26:02;10.50;;;5.20;;
69588;SDS011;56792;50.644;17.984;2023-04-02T04:28:46;9.40;;;5.30;;
69588;SDS011;56792;50.644;17.984;2023-04-02T04:31:29;9.00;;;4.60;;
69588;SDS011;56792;50.644;17.984;2023-04-02T04:34:10;8.80;;;4.40;;
69588;SDS011;56792;50.644;17.984;2023-04-02T04:36:45;7.00;;;3.90;;
69588;SDS011;56792;50.644;17.984;2023-04-02T04:39:25;5.70;;;3.70;;
69588;SDS011;56792;50.644;17.984;2023-04-02T04:42:02;6.60;;;3.50;;
69588;SDS011;56792;50.644;17.984;2023-04-02T04:44:39;6.50;;;4.10;;
69588;SDS011;56792;50.644;17.984;2023-04-02T04:47:18;7.70;;;4.70;;
69588;SDS011;56792;50.644;17.984;2023-04-02T04:49:54;27.30;;;6.40;;
69588;SDS011;56792;50.644;17.984;2023-04-02T04:52:32;6.30;;;4.20;;
69588;SDS011;56792;50.644;17.984;2023-04-02T04:55:04;5.70;;;3.20;;
69588;SDS011;56792;50.644;17.984;2023-04-02T04:57:56;5.70;;;3.50;;
69588;SDS011;56792;50.644;17.984;2023-04-02T05:00:37;5.60;;;3.10;;
69588;SDS011;56792;50.644;17.984;2023-04-02T05:03:18;6.50;;;3.60;;
69588;SDS011;56792;50.644;17.984;2023-04-02T05:05:53;5.30;;;3.00;;
69588;SDS011;56792;50.644;17.984;2023-04-02T05:08:32;5.60;;;3.10;;
69588;SDS011;56792;50.644;17.984;2023-04-02T05:11:06;7.40;;;4.10;;
69588;SDS011;56792;50.644;17.984;2023-04-02T05:13:43;4.80;;;2.90;;
69588;SDS011;56792;50.644;17.984;2023-04-02T05:16:22;5.90;;;3.20;;
69588;SDS011;56792;50.644;17.984;2023-04-02T05:18:59;5.10;;;3.40;;
69588;SDS011;56792;50.644;17.984;2023-04-02T05:21:38;6.10;;;3.70;;
69588;SDS011;56792;50.644;17.984;2023-04-02T05:24:39;7.50;;;4.00;;
69588;SDS011;56792;50.644;17.984;2023-04-02T05:27:22;6.50;;;3.70;;
69588;SDS011;56792;50.644;17.984;2023-04-02T05:29:59;6.80;;;3.60;;
69588;SDS011;56792;50.644;17.984;2023-04-02T05:32:39;6.50;;;4.00;;
69588;SDS011;56792;50.644;17.984;2023-04-02T05:35:15;5.40;;;3.50;;
69588;SDS011;56792;50.644;17.984;2023-04-02T05:37:46;5.70;;;3.40;;
69588;SDS011;56792;50.644;17.984;2023-04-02T05:40:21;5.20;;;3.10;;
69588;SDS011;56792;50.644;17.984;2023-04-02T05:42:54;5.20;;;3.10;;
69588;SDS011;56792;50.644;17.984;2023-04-02T05:45:29;4.30;;;3.00;;
69588;SDS011;56792;50.644;17.984;2023-04-02T05:48:03;4.70;;;2.70;;
69588;SDS011;56792;50.644;17.984;2023-04-02T05:50:42;4.20;;;2.50;;
69588;SDS011;56792;50.644;17.984;2023-04-02T05:53:21;4.30;;;2.90;;
69588;SDS011;56792;50.644;17.984;2023-04-02T05:55:57;4.60;;;2.80;;
69588;SDS011;56792;50.644;17.984;2023-04-02T05:58:33;5.00;;;2.70;;
69588;SDS011;56792;50.644;17.984;2023-04-02T06:01:19;4.90;;;2.80;;
69588;SDS011;56792;50.644;17.984;2023-04-02T06:04:03;6.10;;;2.60;;
69588;SDS011;56792;50.644;17.984;2023-04-02T06:06:47;4.70;;;2.70;;
69588;SDS011;56792;50.644;17.984;2023-04-02T06:09:26;4.50;;;2.70;;
69588;SDS011;56792;50.644;17.984;2023-04-02T06:12:11;5.80;;;3.20;;
69588;SDS011;56792;50.644;17.984;2023-04-02T06:14:44;4.60;;;3.10;;
69588;SDS011;56792;50.644;17.984;2023-04-02T06:17:15;4.80;;;2.70;;
69588;SDS011;56792;50.644;17.984;2023-04-02T06:19:46;5.70;;;3.60;;
69588;SDS011;56792;50.644;17.984;2023-04-02T06:22:23;5.00;;;2.90;;
69588;SDS011;56792;50.644;17.984;2023-04-02T06:25:02;5.40;;;3.40;;
69588;SDS011;56792;50.644;17.984;2023-04-02T06:27:41;5.40;;;3.80;;
69588;SDS011;56792;50.644;17.984;2023-04-02T06:30:17;4.70;;;3.30;;
69588;SDS011;56792;50.644;17.984;2023-04-02T06:32:49;4.80;;;3.20;;
69588;SDS011;56792;50.644;17.984;2023-04-02T06:35:18;5.20;;;3.80;;
69588;SDS011;56792;50.644;17.984;2023-04-02T06:37:57;5.30;;;3.40;;
69588;SDS011;56792;50.644;17.984;2023-04-02T06:40:48;5.70;;;3.40;;
69588;SDS011;56792;50.644;17.984;2023-04-02T06:43:36;6.20;;;3.20;;
69588;SDS011;56792;50.644;17.984;2023-04-02T06:46:22;5.20;;;3.40;;
69588;SDS011;56792;50.644;17.984;2023-04-02T06:49:10;6.20;;;3.70;;
69588;SDS011;56792;50.644;17.984;2023-04-02T06:51:44;10.60;;;6.30;;
69588;SDS011;56792;50.644;17.984;2023-04-02T06:54:17;8.80;;;5.20;;
69588;SDS011;56792;50.644;17.984;2023-04-02T06:56:51;8.30;;;5.30;;
69588;SDS011;56792;50.644;17.984;2023-04-02T06:59:29;9.40;;;5.40;;
69588;SDS011;56792;50.644;17.984;2023-04-02T07:02:00;9.20;;;6.10;;
69588;SDS011;56792;50.644;17.984;2023-04-02T07:04:32;11.30;;;6.90;;
69588;SDS011;56792;50.644;17.984;2023-04-02T07:07:02;12.20;;;7.10;;
69588;SDS011;56792;50.644;17.984;2023-04-02T07:09:33;13.00;;;7.20;;
69588;SDS011;56792;50.644;17.984;2023-04-02T07:12:10;15.80;;;8.00;;
69588;SDS011;56792;50.644;17.984;2023-04-02T07:14:38;11.40;;;7.20;;
69588;SDS011;56792;50.644;17.984;2023-04-02T07:17:13;11.00;;;6.90;;
69588;SDS011;56792;50.644;17.984;2023-04-02T07:19:43;16.60;;;8.70;;
69588;SDS011;56792;50.644;17.984;2023-04-02T07:22:16;20.00;;;8.80;;
69588;SDS011;56792;50.644;17.984;2023-04-02T07:24:47;18.20;;;8.90;;
69588;SDS011;56792;50.644;17.984;2023-04-02T07:27:16;16.00;;;8.90;;
69588;SDS011;56792;50.644;17.984;2023-04-02T07:29:44;16.10;;;8.80;;
69588;SDS011;56792;50.644;17.984;2023-04-02T07:32:13;13.70;;;8.50;;
69588;SDS011;56792;50.644;17.984;2023-04-02T07:34:41;14.30;;;8.40;;
69588;SDS011;56792;50.644;17.984;2023-04-02T07:37:12;13.10;;;9.00;;
69588;SDS011;56792;50.644;17.984;2023-04-02T07:39:40;14.40;;;8.80;;
69588;SDS011;56792;50.644;17.984;2023-04-02T07:42:09;13.50;;;8.60;;
69588;SDS011;56792;50.644;17.984;2023-04-02T07:44:37;13.10;;;8.50;;
69588;SDS011;56792;50.644;17.984;2023-04-02T07:47:05;11.70;;;8.20;;
69588;SDS011;56792;50.644;17.984;2023-04-02T07:49:34;12.50;;;7.70;;
69588;SDS011;56792;50.644;17.984;2023-04-02T07:52:02;12.30;;;8.00;;
69588;SDS011;56792;50.644;17.984;2023-04-02T07:54:31;12.80;;;7.50;;
69588;SDS011;56792;50.644;17.984;2023-04-02T07:56:59;20.90;;;12.80;;
69588;SDS011;56792;50.644;17.984;2023-04-02T07:59:27;9.70;;;7.10;;
69588;SDS011;56792;50.644;17.984;2023-04-02T08:01:55;9.70;;;6.10;;
69588;SDS011;56792;50.644;17.984;2023-04-02T08:04:23;9.80;;;6.10;;
69588;SDS011;56792;50.644;17.984;2023-04-02T08:06:53;10.30;;;6.30;;
69588;SDS011;56792;50.644;17.984;2023-04-02T08:09:21;8.70;;;5.40;;
69588;SDS011;56792;50.644;17.984;2023-04-02T08:11:49;9.20;;;6.20;;
69588;SDS011;56792;50.644;17.984;2023-04-02T08:14:17;9.40;;;5.40;;
69588;SDS011;56792;50.644;17.984;2023-04-02T08:16:47;7.90;;;4.80;;
69588;SDS011;56792;50.644;17.984;2023-04-02T08:19:17;8.50;;;5.40;;
69588;SDS011;56792;50.644;17.984;2023-04-02T08:21:45;8.60;;;4.90;;
69588;SDS011;56792;50.644;17.984;2023-04-02T08:24:17;9.80;;;6.10;;
69588;SDS011;56792;50.644;17.984;2023-04-02T08:26:46;9.60;;;5.90;;
69588;SDS011;56792;50.644;17.984;2023-04-02T08:29:15;8.90;;;5.00;;
69588;SDS011;56792;50.644;17.984;2023-04-02T08:31:43;8.80;;;4.40;;
69588;SDS011;56792;50.644;17.984;2023-04-02T08:34:11;7.80;;;4.70;;
69588;SDS011;56792;50.644;17.984;2023-04-02T08:36:43;7.80;;;4.60;;
69588;SDS011;56792;50.644;17.984;2023-04-02T08:39:11;8.10;;;5.30;;
69588;SDS011;56792;50.644;17.984;2023-04-02T08:41:44;8.40;;;4.80;;
69588;SDS011;56792;50.644;17.984;2023-04-02T08:44:29;9.00;;;4.50;;
69588;SDS011;56792;50.644;17.984;2023-04-02T08:47:07;6.30;;;4.20;;
69588;SDS011;56792;50.644;17.984;2023-04-02T08:49:41;7.90;;;4.50;;
69588;SDS011;56792;50.644;17.984;2023-04-02T08:52:21;6.90;;;4.10;;
69588;SDS011;56792;50.644;17.984;2023-04-02T08:54:51;9.20;;;4.80;;
69588;SDS011;56792;50.644;17.984;2023-04-02T08:57:28;7.50;;;4.30;;
69588;SDS011;56792;50.644;17.984;2023-04-02T09:00:07;7.00;;;4.60;;
69588;SDS011;56792;50.644;17.984;2023-04-02T09:02:55;6.20;;;3.90;;
69588;SDS011;56792;50.644;17.984;2023-04-02T09:05:28;6.20;;;4.30;;
69588;SDS011;56792;50.644;17.984;2023-04-02T09:08:02;6.10;;;4.10;;
69588;SDS011;56792;50.644;17.984;2023-04-02T09:10:37;7.30;;;4.60;;
69588;SDS011;56792;50.644;17.984;2023-04-02T09:13:17;6.70;;;4.50;;
69588;SDS011;56792;50.644;17.984;2023-04-02T09:15:54;7.00;;;4.30;;
69588;SDS011;56792;50.644;17.984;2023-04-02T09:18:27;7.00;;;4.50;;
69588;SDS011;56792;50.644;17.984;2023-04-02T09:20:58;8.60;;;4.20;;
69588;SDS011;56792;50.644;17.984;2023-04-02T09:23:30;6.20;;;3.90;;
69588;SDS011;56792;50.644;17.984;2023-04-02T09:25:58;8.00;;;4.00;;
69588;SDS011;56792;50.644;17.984;2023-04-02T09:28:26;7.30;;;3.80;;
69588;SDS011;56792;50.644;17.984;2023-04-02T09:31:01;6.50;;;3.80;;
69588;SDS011;56792;50.644;17.984;2023-04-02T09:33:44;6.90;;;3.90;;
69588;SDS011;56792;50.644;17.984;2023-04-02T09:36:24;7.00;;;4.20;;
69588;SDS011;56792;50.644;17.984;2023-04-02T09:39:01;6.10;;;3.80;;
69588;SDS011;56792;50.644;17.984;2023-04-02T09:41:34;8.10;;;4.20;;
69588;SDS011;56792;50.644;17.984;2023-04-02T09:44:26;9.60;;;5.20;;
69588;SDS011;56792;50.644;17.984;2023-04-02T09:46:58;9.40;;;5.10;;
69588;SDS011;56792;50.644;17.984;2023-04-02T09:49:30;7.50;;;4.50;;
69588;SDS011;56792;50.644;17.984;2023-04-02T09:52:18;7.70;;;4.20;;
69588;SDS011;56792;50.644;17.984;2023-04-02T09:55:17;7.10;;;4.50;;
69588;SDS011;56792;50.644;17.984;2023-04-02T09:57:49;7.70;;;4.70;;
69588;SDS011;56792;50.644;17.984;2023-04-02T10:00:31;6.40;;;3.90;;
69588;SDS011;56792;50.644;17.984;2023-04-02T10:03:03;6.80;;;4.40;;
69588;SDS011;56792;50.644;17.984;2023-04-02T10:05:33;7.40;;;5.00;;
69588;SDS011;56792;50.644;17.984;2023-04-02T10:08:15;7.90;;;4.60;;
69588;SDS011;56792;50.644;17.984;2023-04-02T10:10:48;9.30;;;5.60;;
69588;SDS011;56792;50.644;17.984;2023-04-02T10:13:23;9.40;;;5.30;;
69588;SDS011;56792;50.644;17.984;2023-04-02T10:15:57;10.30;;;5.40;;
69588;SDS011;56792;50.644;17.984;2023-04-02T10:18:37;7.30;;;4.70;;
69588;SDS011;56792;50.644;17.984;2023-04-02T10:21:12;10.20;;;4.90;;
69588;SDS011;56792;50.644;17.984;2023-04-02T10:23:44;7.70;;;5.00;;
69588;SDS011;56792;50.644;17.984;2023-04-02T10:26:23;8.70;;;5.60;;
69588;SDS011;56792;50.644;17.984;2023-04-02T10:29:33;7.30;;;4.40;;
69588;SDS011;56792;50.644;17.984;2023-04-02T10:32:20;7.10;;;4.40;;
69588;SDS011;56792;50.644;17.984;2023-04-02T10:34:56;7.90;;;4.90;;
69588;SDS011;56792;50.644;17.984;2023-04-02T10:37:46;6.70;;;4.70;;
69588;SDS011;56792;50.644;17.984;2023-04-02T10:40:28;6.50;;;5.00;;
69588;SDS011;56792;50.644;17.984;2023-04-02T10:43:29;7.90;;;4.70;;
69588;SDS011;56792;50.644;17.984;2023-04-02T10:46:08;7.40;;;4.30;;
69588;SDS011;56792;50.644;17.984;2023-04-02T10:48:48;6.60;;;4.70;;
69588;SDS011;56792;50.644;17.984;2023-04-02T10:51:30;9.10;;;4.90;;
69588;SDS011;56792;50.644;17.984;2023-04-02T10:54:18;20.40;;;15.60;;
69588;SDS011;56792;50.644;17.984;2023-04-02T10:56:55;9.60;;;6.20;;
69588;SDS011;56792;50.644;17.984;2023-04-02T10:59:33;7.20;;;5.30;;
69588;SDS011;56792;50.644;17.984;2023-04-02T11:02:27;8.80;;;5.30;;
69588;SDS011;56792;50.644;17.984;2023-04-02T11:05:04;9.50;;;5.40;;
69588;SDS011;56792;50.644;17.984;2023-04-02T11:07:52;9.30;;;5.40;;
69588;SDS011;56792;50.644;17.984;2023-04-02T11:10:25;9.50;;;5.60;;
69588;SDS011;56792;50.644;17.984;2023-04-02T11:12:59;7.40;;;4.80;;
69588;SDS011;56792;50.644;17.984;2023-04-02T11:15:32;8.40;;;6.00;;
69588;SDS011;56792;50.644;17.984;2023-04-02T11:18:02;9.10;;;5.50;;
69588;SDS011;56792;50.644;17.984;2023-04-02T11:21:05;9.00;;;5.80;;
69588;SDS011;56792;50.644;17.984;2023-04-02T11:23:53;8.00;;;5.70;;
69588;SDS011;56792;50.644;17.984;2023-04-02T11:26:34;7.40;;;5.50;;
69588;SDS011;56792;50.644;17.984;2023-04-02T11:29:19;7.60;;;5.20;;
69588;SDS011;56792;50.644;17.984;2023-04-02T11:37:55;8.20;;;5.40;;
69588;SDS011;56792;50.644;17.984;2023-04-02T11:40:46;8.40;;;5.40;;
69588;SDS011;56792;50.644;17.984;2023-04-02T11:43:59;9.90;;;5.90;;
69588;SDS011;56792;50.644;17.984;2023-04-02T11:46:42;8.60;;;5.20;;
69588;SDS011;56792;50.644;17.984;2023-04-02T11:49:32;7.50;;;5.10;;
69588;SDS011;56792;50.644;17.984;2023-04-02T11:52:24;6.00;;;4.50;;
69588;SDS011;56792;50.644;17.984;2023-04-02T11:55:23;8.00;;;5.00;;
69588;SDS011;56792;50.644;17.984;2023-04-02T12:01:27;10.20;;;6.70;;
69588;SDS011;56792;50.644;17.984;2023-04-02T12:04:10;10.30;;;6.90;;
69588;SDS011;56792;50.644;17.984;2023-04-02T12:06:55;11.00;;;7.60;;
69588;SDS011;56792;50.644;17.984;2023-04-02T12:09:43;9.60;;;7.10;;
69588;SDS011;56792;50.644;17.984;2023-04-02T12:12:22;8.50;;;6.70;;
69588;SDS011;56792;50.644;17.984;2023-04-02T12:14:54;8.70;;;6.70;;
69588;SDS011;56792;50.644;17.984;2023-04-02T12:17:29;8.20;;;5.90;;
69588;SDS011;56792;50.644;17.984;2023-04-02T12:20:00;8.90;;;6.00;;
69588;SDS011;56792;50.644;17.984;2023-04-02T12:22:36;8.00;;;5.80;;
69588;SDS011;56792;50.644;17.984;2023-04-02T12:25:22;9.10;;;5.90;;
69588;SDS011;56792;50.644;17.984;2023-04-02T12:28:05;8.30;;;5.00;;
69588;SDS011;56792;50.644;17.984;2023-04-02T12:30:44;7.90;;;5.90;;
69588;SDS011;56792;50.644;17.984;2023-04-02T12:33:25;8.50;;;5.90;;
69588;SDS011;56792;50.644;17.984;2023-04-02T12:35:58;7.90;;;5.10;;
69588;SDS011;56792;50.644;17.984;2023-04-02T12:38:28;6.30;;;4.40;;
69588;SDS011;56792;50.644;17.984;2023-04-02T12:41:00;7.10;;;4.70;;
69588;SDS011;56792;50.644;17.984;2023-04-02T12:43:32;8.00;;;4.80;;
69588;SDS011;56792;50.644;17.984;2023-04-02T12:46:03;8.20;;;4.50;;
69588;SDS011;56792;50.644;17.984;2023-04-02T12:48:33;8.90;;;5.60;;
69588;SDS011;56792;50.644;17.984;2023-04-02T12:51:03;8.10;;;4.80;;
69588;SDS011;56792;50.644;17.984;2023-04-02T12:53:35;10.40;;;5.50;;
69588;SDS011;56792;50.644;17.984;2023-04-02T12:56:07;8.80;;;5.90;;
69588;SDS011;56792;50.644;17.984;2023-04-02T12:58:53;7.40;;;5.40;;
69588;SDS011;56792;50.644;17.984;2023-04-02T13:01:23;9.30;;;5.70;;
69588;SDS011;56792;50.644;17.984;2023-04-02T13:04:01;8.00;;;5.50;;
69588;SDS011;56792;50.644;17.984;2023-04-02T13:06:30;8.60;;;5.80;;
69588;SDS011;56792;50.644;17.984;2023-04-02T13:09:00;9.10;;;6.10;;
69588;SDS011;56792;50.644;17.984;2023-04-02T13:11:37;7.20;;;5.10;;
69588;SDS011;56792;50.644;17.984;2023-04-02T13:14:14;7.80;;;4.90;;
69588;SDS011;56792;50.644;17.984;2023-04-02T13:16:44;8.10;;;5.60;;
69588;SDS011;56792;50.644;17.984;2023-04-02T13:19:28;8.90;;;5.70;;
69588;SDS011;56792;50.644;17.984;2023-04-02T13:21:59;9.90;;;5.90;;
69588;SDS011;56792;50.644;17.984;2023-04-02T13:24:31;9.50;;;5.20;;
69588;SDS011;56792;50.644;17.984;2023-04-02T13:27:01;10.30;;;6.30;;
69588;SDS011;56792;50.644;17.984;2023-04-02T13:29:31;9.20;;;5.20;;
69588;SDS011;56792;50.644;17.984;2023-04-02T13:32:02;12.10;;;7.20;;
69588;SDS011;56792;50.644;17.984;2023-04-02T13:34:32;9.30;;;5.80;;
69588;SDS011;56792;50.644;17.984;2023-04-02T13:37:00;12.90;;;6.90;;
69588;SDS011;56792;50.644;17.984;2023-04-02T13:39:28;9.40;;;6.40;;
69588;SDS011;56792;50.644;17.984;2023-04-02T13:41:57;9.50;;;6.50;;
69588;SDS011;56792;50.644;17.984;2023-04-02T13:44:29;10.00;;;5.90;;
69588;SDS011;56792;50.644;17.984;2023-04-02T13:46:59;10.40;;;6.50;;
69588;SDS011;56792;50.644;17.984;2023-04-02T13:49:28;13.70;;;6.60;;
69588;SDS011;56792;50.644;17.984;2023-04-02T13:51:59;13.20;;;6.20;;
69588;SDS011;56792;50.644;17.984;2023-04-02T13:54:32;11.10;;;5.80;;
69588;SDS011;56792;50.644;17.984;2023-04-02T13:57:09;12.20;;;6.60;;
69588;SDS011;56792;50.644;17.984;2023-04-02T13:59:37;9.50;;;5.90;;
69588;SDS011;56792;50.644;17.984;2023-04-02T14:02:09;9.80;;;6.20;;
69588;SDS011;56792;50.644;17.984;2023-04-02T14:04:43;13.50;;;6.90;;
69588;SDS011;56792;50.644;17.984;2023-04-02T14:07:25;15.40;;;8.30;;
69588;SDS011;56792;50.644;17.984;2023-04-02T14:10:16;10.50;;;6.30;;
69588;SDS011;56792;50.644;17.984;2023-04-02T14:13:02;14.30;;;6.90;;
69588;SDS011;56792;50.644;17.984;2023-04-02T14:15:52;10.10;;;6.20;;
69588;SDS011;56792;50.644;17.984;2023-04-02T14:18:55;8.50;;;5.10;;
69588;SDS011;56792;50.644;17.984;2023-04-02T14:21:42;9.30;;;5.20;;
69588;SDS011;56792;50.644;17.984;2023-04-02T14:24:23;10.80;;;6.10;;
69588;SDS011;56792;50.644;17.984;2023-04-02T14:27:17;10.70;;;6.00;;
69588;SDS011;56792;50.644;17.984;2023-04-02T14:29:59;10.00;;;5.30;;
69588;SDS011;56792;50.644;17.984;2023-04-02T14:32:35;7.60;;;4.70;;
69588;SDS011;56792;50.644;17.984;2023-04-02T14:35:14;8.90;;;5.40;;
69588;SDS011;56792;50.644;17.984;2023-04-02T14:37:51;8.30;;;5.40;;
69588;SDS011;56792;50.644;17.984;2023-04-02T14:40:33;10.20;;;5.60;;
69588;SDS011;56792;50.644;17.984;2023-04-02T14:43:07;7.90;;;5.10;;
69588;SDS011;56792;50.644;17.984;2023-04-02T14:45:55;6.70;;;4.60;;
69588;SDS011;56792;50.644;17.984;2023-04-02T14:48:36;9.00;;;5.30;;
69588;SDS011;56792;50.644;17.984;2023-04-02T14:51:14;10.20;;;6.00;;
69588;SDS011;56792;50.644;17.984;2023-04-02T14:53:57;8.80;;;5.50;;
69588;SDS011;56792;50.644;17.984;2023-04-02T14:56:30;10.00;;;6.00;;
69588;SDS011;56792;50.644;17.984;2023-04-02T14:59:18;12.30;;;6.50;;
69588;SDS011;56792;50.644;17.984;2023-04-02T15:01:55;11.30;;;6.50;;
69588;SDS011;56792;50.644;17.984;2023-04-02T15:04:31;9.80;;;6.20;;
69588;SDS011;56792;50.644;17.984;2023-04-02T15:07:08;11.10;;;6.30;;
69588;SDS011;56792;50.644;17.984;2023-04-02T15:09:47;7.40;;;5.40;;
69588;SDS011;56792;50.644;17.984;2023-04-02T15:12:22;8.30;;;5.10;;
69588;SDS011;56792;50.644;17.984;2023-04-02T15:14:58;9.50;;;5.50;;
69588;SDS011;56792;50.644;17.984;2023-04-02T15:17:32;6.70;;;4.70;;
69588;SDS011;56792;50.644;17.984;2023-04-02T15:20:12;7.60;;;4.70;;
69588;SDS011;56792;50.644;17.984;2023-04-02T15:22:45;6.70;;;4.50;;
69588;SDS011;56792;50.644;17.984;2023-04-02T15:25:28;7.00;;;4.20;;
69588;SDS011;56792;50.644;17.984;2023-04-02T15:28:08;8.80;;;5.30;;
69588;SDS011;56792;50.644;17.984;2023-04-02T15:30:49;8.60;;;4.30;;
69588;SDS011;56792;50.644;17.984;2023-04-02T15:33:37;15.90;;;6.80;;